createdAt,value
2019-05-03T00:01:07.219Z,8.30
2019-05-03T00:03:36.883Z,8.20
2019-05-03T00:06:06.562Z,8.30
2019-05-03T00:08:36.469Z,8.30
2019-05-03T00:11:06.507Z,8.30
2019-05-03T00:13:36.288Z,8.40
2019-05-03T00:16:12.213Z,8.30
2019-05-03T00:18:42.302Z,8.30
2019-05-03T00:21:12.155Z,8.20
2019-05-03T00:23:41.937Z,8.20
2019-05-03T00:26:12.088Z,8.20
2019-05-03T00:28:42.636Z,8.20
2019-05-03T00:31:12.642Z,8.20
2019-05-03T00:33:44.072Z,8.10
2019-05-03T00:36:18.150Z,8.10
2019-05-03T00:38:48.467Z,8.00
2019-05-03T00:41:18.130Z,8.10
2019-05-03T00:43:47.807Z,8.10
2019-05-03T00:46:17.529Z,8.10
2019-05-03T00:48:47.212Z,8.00
2019-05-03T00:51:16.786Z,8.00
2019-05-03T00:53:46.590Z,8.00
2019-05-03T00:56:16.298Z,8.00
2019-05-03T00:58:53.486Z,7.90
2019-05-03T01:01:23.167Z,7.90
2019-05-03T01:03:52.872Z,7.90
2019-05-03T01:06:22.830Z,7.90
2019-05-03T01:08:52.654Z,7.90
2019-05-03T01:11:22.724Z,7.90
2019-05-03T01:13:52.493Z,7.90
2019-05-03T01:16:23.855Z,7.90
2019-05-03T01:18:53.856Z,8.00
2019-05-03T01:21:23.586Z,7.90
2019-05-03T01:23:53.215Z,7.60
2019-05-03T01:26:22.986Z,7.20
2019-05-03T01:28:52.716Z,6.90
2019-05-03T01:31:22.933Z,6.80
2019-05-03T01:33:52.792Z,6.80
2019-05-03T01:36:23.049Z,6.80
2019-05-03T01:38:53.166Z,6.80
2019-05-03T01:41:23.033Z,6.80
2019-05-03T01:43:52.840Z,6.80
2019-05-03T01:46:22.998Z,6.80
2019-05-03T01:49:01.557Z,6.80
2019-05-03T01:51:32.891Z,6.80
2019-05-03T01:54:02.634Z,6.90
2019-05-03T01:56:32.256Z,6.90
2019-05-03T01:59:01.984Z,6.90
2019-05-03T02:01:38.609Z,6.90
2019-05-03T02:04:18.499Z,7.00
2019-05-03T02:06:48.116Z,7.00
2019-05-03T02:09:17.905Z,7.00
2019-05-03T02:11:47.561Z,7.00
2019-05-03T02:14:17.309Z,7.00
2019-05-03T02:16:46.861Z,7.00
2019-05-03T02:19:16.690Z,7.00
2019-05-03T02:21:46.321Z,7.00
2019-05-03T02:24:16.171Z,7.00
2019-05-03T02:26:45.805Z,7.00
2019-05-03T02:29:15.579Z,7.00
2019-05-03T02:31:46.168Z,7.00
2019-05-03T02:34:16.017Z,7.10
2019-05-03T02:36:45.569Z,7.00
2019-05-03T02:39:16.962Z,7.00
2019-05-03T02:41:49.498Z,7.10
2019-05-03T02:44:19.981Z,7.10
2019-05-03T02:46:51.306Z,7.20
2019-05-03T02:49:26.095Z,7.20
2019-05-03T02:51:55.771Z,7.20
2019-05-03T02:54:26.973Z,7.10
2019-05-03T02:56:56.893Z,7.20
2019-05-03T02:59:26.691Z,7.20
2019-05-03T03:01:56.910Z,7.00
2019-05-03T03:04:27.749Z,7.00
2019-05-03T03:06:58.691Z,7.10
2019-05-03T03:09:28.996Z,7.00
2019-05-03T03:11:59.940Z,7.10
2019-05-03T03:14:31.160Z,7.10
2019-05-03T03:17:06.413Z,7.20
2019-05-03T03:19:36.735Z,7.20
2019-05-03T03:22:08.386Z,7.20
2019-05-03T03:24:41.483Z,7.20
2019-05-03T03:27:16.586Z,7.20
2019-05-03T03:29:50.844Z,7.20
2019-05-03T03:32:30.957Z,7.10
2019-05-03T03:35:21.462Z,7.10
2019-05-03T03:37:48.370Z,7.10
2019-05-03T03:40:18.732Z,7.10
2019-05-03T03:42:50.783Z,7.20
2019-05-03T03:45:20.477Z,7.20
2019-05-03T03:47:56.314Z,7.20
2019-05-03T03:50:26.740Z,7.10
2019-05-03T03:52:59.379Z,7.10
2019-05-03T03:55:32.474Z,7.10
2019-05-03T03:58:02.738Z,7.10
2019-05-03T04:00:35.973Z,7.00
2019-05-03T04:03:05.917Z,7.10
2019-05-03T04:05:36.050Z,7.10
2019-05-03T04:08:05.943Z,7.00
2019-05-03T04:10:35.611Z,7.10
2019-05-03T04:13:06.987Z,7.00
2019-05-03T04:15:38.475Z,7.00
2019-05-03T04:18:19.820Z,7.00
2019-05-03T04:20:49.447Z,7.00
2019-05-03T04:23:19.899Z,7.00
2019-05-03T04:25:49.886Z,7.10
2019-05-03T04:28:19.655Z,7.10
2019-05-03T04:30:49.278Z,7.00
2019-05-03T04:33:21.211Z,7.10
2019-05-03T04:35:50.737Z,7.20
2019-05-03T04:38:20.433Z,7.30
2019-05-03T04:40:50.108Z,7.40
2019-05-03T04:43:19.841Z,7.40
2019-05-03T04:46:06.650Z,7.50
2019-05-03T04:48:36.822Z,7.60
2019-05-03T04:51:06.684Z,7.90
2019-05-03T04:53:38.222Z,7.90
2019-05-03T04:56:07.815Z,10.30
2019-05-03T04:58:37.719Z,10.00
2019-05-03T05:01:08.161Z,11.50
2019-05-03T05:03:38.056Z,10.60
2019-05-03T05:06:07.729Z,10.50
2019-05-03T05:08:37.423Z,12.30
2019-05-03T05:11:10.313Z,13.10
2019-05-03T05:13:38.302Z,14.40
2019-05-03T05:16:08.088Z,13.90
2019-05-03T05:18:45.738Z,15.10
2019-05-03T05:21:17.228Z,15.10
2019-05-03T05:24:05.270Z,14.10
2019-05-03T05:26:48.910Z,14.10
2019-05-03T05:29:22.910Z,13.90
2019-05-03T05:31:52.470Z,14.30
2019-05-03T05:34:22.094Z,14.80
2019-05-03T05:36:51.584Z,13.80
2019-05-03T05:39:21.258Z,15.30
2019-05-03T05:41:50.990Z,12.40
2019-05-03T05:44:20.637Z,11.80
2019-05-03T05:47:02.106Z,14.40
2019-05-03T05:49:51.870Z,16.00
2019-05-03T05:52:21.604Z,16.50
2019-05-03T05:55:04.935Z,17.70
2019-05-03T05:58:02.000Z,17.30
2019-05-03T06:00:29.645Z,16.90
2019-05-03T06:02:59.291Z,16.90
2019-05-03T06:05:29.058Z,17.80
2019-05-03T06:08:04.816Z,18.60
2019-05-03T06:10:55.336Z,18.10
2019-05-03T06:13:41.620Z,17.20
2019-05-03T06:16:16.130Z,19.50
2019-05-03T06:18:51.758Z,19.30
2019-05-03T06:21:30.719Z,17.60
2019-05-03T06:24:18.093Z,17.90
2019-05-03T06:27:05.560Z,19.40
2019-05-03T06:29:35.236Z,19.60
2019-05-03T06:32:07.739Z,17.50
2019-05-03T06:34:37.429Z,15.80
2019-05-03T06:37:08.987Z,17.20
2019-05-03T06:39:38.544Z,18.00
2019-05-03T06:42:10.052Z,18.90
2019-05-03T06:44:39.870Z,17.10
2019-05-03T06:47:10.550Z,15.70
2019-05-03T06:49:44.986Z,15.50
2019-05-03T06:52:11.751Z,16.20
2019-05-03T06:54:41.340Z,16.30
2019-05-03T06:57:14.415Z,14.70
2019-05-03T06:59:46.533Z,13.70
2019-05-03T07:02:25.134Z,16.40
2019-05-03T07:04:56.643Z,15.10
2019-05-03T07:07:46.363Z,12.40
2019-05-03T07:10:17.634Z,10.90
2019-05-03T07:13:00.630Z,9.90
2019-05-03T07:15:30.279Z,14.40
2019-05-03T07:18:00.005Z,15.70
2019-05-03T07:20:31.348Z,12.40
2019-05-03T07:23:01.166Z,11.40
2019-05-03T07:25:30.817Z,13.10
2019-05-03T07:28:00.459Z,13.30
2019-05-03T07:30:30.242Z,14.80
2019-05-03T07:33:01.734Z,16.80
2019-05-03T07:35:31.352Z,16.50
2019-05-03T07:38:01.573Z,17.60
2019-05-03T07:40:31.218Z,17.30
2019-05-03T07:43:00.993Z,17.50
2019-05-03T07:45:30.630Z,17.70
2019-05-03T07:48:00.652Z,14.60
2019-05-03T07:50:32.934Z,15.00
2019-05-03T07:53:01.966Z,14.90
2019-05-03T07:55:48.718Z,13.00
2019-05-03T07:58:20.030Z,12.10
2019-05-03T08:01:05.076Z,11.30
2019-05-03T08:03:24.327Z,10.70
2019-05-03T08:05:55.328Z,10.50
2019-05-03T08:08:25.436Z,10.70
2019-05-03T08:10:55.163Z,11.10
2019-05-03T08:13:25.417Z,10.30
2019-05-03T08:15:55.885Z,10.40
2019-05-03T08:18:25.918Z,10.40
2019-05-03T08:20:55.818Z,10.20
2019-05-03T08:23:29.934Z,9.90
2019-05-03T08:25:56.832Z,9.70
2019-05-03T08:28:26.463Z,9.50
2019-05-03T08:31:04.741Z,9.40
2019-05-03T08:33:36.144Z,9.70
2019-05-03T08:36:06.233Z,10.00
2019-05-03T08:38:35.768Z,9.90
2019-05-03T08:41:07.108Z,9.80
2019-05-03T08:43:36.778Z,9.90
2019-05-03T08:46:06.470Z,10.20
2019-05-03T08:48:36.122Z,10.30
2019-05-03T08:51:05.797Z,10.40
2019-05-03T08:53:35.962Z,10.30
2019-05-03T08:56:05.839Z,10.20
2019-05-03T08:58:35.458Z,10.10
2019-05-03T09:01:05.764Z,10.00
2019-05-03T09:03:38.227Z,10.00
2019-05-03T09:06:06.946Z,10.00
2019-05-03T09:08:36.733Z,10.00
2019-05-03T09:11:15.556Z,10.50
2019-05-03T09:13:55.871Z,10.50
2019-05-03T09:16:25.620Z,10.30
2019-05-03T09:18:55.246Z,10.30
2019-05-03T09:21:25.554Z,10.30
2019-05-03T09:23:55.660Z,10.10
2019-05-03T09:26:29.114Z,9.80
2019-05-03T09:28:57.101Z,9.90
2019-05-03T09:31:26.658Z,10.40
2019-05-03T09:33:56.304Z,10.30
2019-05-03T09:36:26.016Z,10.20
2019-05-03T09:38:55.785Z,10.00
2019-05-03T09:41:25.826Z,9.80
2019-05-03T09:43:55.748Z,9.60
2019-05-03T09:46:26.550Z,9.60
2019-05-03T09:49:09.584Z,9.80
2019-05-03T09:51:27.882Z,10.30
2019-05-03T09:53:58.998Z,10.30
2019-05-03T09:56:55.243Z,10.10
2019-05-03T09:59:17.414Z,10.30
2019-05-03T10:01:47.517Z,10.70
2019-05-03T10:04:18.119Z,10.50
2019-05-03T10:06:48.398Z,10.50
2019-05-03T10:09:18.199Z,10.60
2019-05-03T10:11:48.192Z,10.70
2019-05-03T10:14:18.019Z,10.90
2019-05-03T10:16:54.602Z,11.10
2019-05-03T10:19:36.296Z,11.10
2019-05-03T10:21:55.790Z,11.90
2019-05-03T10:24:25.658Z,11.70
2019-05-03T10:26:55.332Z,11.60
2019-05-03T10:29:25.215Z,11.80
2019-05-03T10:32:02.195Z,11.90
2019-05-03T10:34:31.778Z,11.50
2019-05-03T10:37:01.500Z,11.30
2019-05-03T10:39:31.202Z,11.20
2019-05-03T10:42:00.891Z,10.90
2019-05-03T10:44:30.534Z,11.00
2019-05-03T10:47:00.370Z,11.40
2019-05-03T10:49:29.974Z,11.70
2019-05-03T10:52:01.188Z,12.20
2019-05-03T10:54:30.895Z,12.90
2019-05-03T10:57:02.158Z,12.80
2019-05-03T10:59:31.753Z,12.60
2019-05-03T11:02:03.006Z,12.30
2019-05-03T11:04:33.693Z,12.50
2019-05-03T11:07:05.447Z,12.30
2019-05-03T11:09:47.920Z,12.00
2019-05-03T11:12:07.087Z,12.00
2019-05-03T11:14:36.845Z,12.10
2019-05-03T11:17:06.410Z,12.30
2019-05-03T11:19:36.202Z,12.00
2019-05-03T11:22:05.984Z,11.70
2019-05-03T11:24:35.626Z,11.50
2019-05-03T11:27:13.443Z,11.30
2019-05-03T11:29:44.885Z,11.20
2019-05-03T11:32:15.911Z,11.20
2019-05-03T11:34:56.087Z,11.20
2019-05-03T11:37:30.301Z,11.40
2019-05-03T11:40:00.252Z,11.40
2019-05-03T11:42:30.047Z,11.90
2019-05-03T11:44:59.726Z,11.90
2019-05-03T11:47:29.748Z,11.90
2019-05-03T11:49:59.297Z,12.00
2019-05-03T11:52:28.989Z,12.30
2019-05-03T11:54:58.601Z,12.10
2019-05-03T11:57:28.680Z,11.90
2019-05-03T11:59:58.577Z,11.70
2019-05-03T12:02:28.929Z,11.40
2019-05-03T12:05:06.326Z,11.40
2019-05-03T12:07:39.602Z,11.50
2019-05-03T12:10:17.605Z,11.30
2019-05-03T12:12:57.258Z,11.00
2019-05-03T12:15:27.087Z,11.10
2019-05-03T12:17:59.412Z,11.10
2019-05-03T12:20:30.886Z,11.30
2019-05-03T12:23:01.672Z,11.50
2019-05-03T12:25:32.185Z,11.40
2019-05-03T12:28:05.627Z,11.50
2019-05-03T12:30:35.493Z,11.70
2019-05-03T12:33:06.110Z,11.70
2019-05-03T12:35:36.001Z,11.70
2019-05-03T12:38:05.976Z,11.40
2019-05-03T12:40:35.790Z,11.50
2019-05-03T12:43:06.270Z,11.50
2019-05-03T12:45:36.151Z,11.50
2019-05-03T12:48:06.263Z,11.70
2019-05-03T12:50:35.953Z,11.70
2019-05-03T12:53:05.835Z,11.40
2019-05-03T12:55:35.702Z,11.90
2019-05-03T12:58:06.394Z,12.20
2019-05-03T13:00:48.116Z,12.20
2019-05-03T13:03:17.556Z,12.60
2019-05-03T13:05:47.085Z,12.70
2019-05-03T13:08:38.365Z,12.70
2019-05-03T13:11:08.757Z,12.60
2019-05-03T13:13:38.582Z,12.30
2019-05-03T13:16:10.006Z,12.10
2019-05-03T13:18:39.896Z,12.00
2019-05-03T13:21:09.552Z,12.00
2019-05-03T13:23:39.348Z,12.30
2019-05-03T13:26:08.951Z,12.30
2019-05-03T13:28:38.793Z,12.20
2019-05-03T13:31:08.354Z,11.90
2019-05-03T13:33:38.109Z,11.90
2019-05-03T13:36:07.850Z,12.10
2019-05-03T13:38:37.547Z,12.10
2019-05-03T13:41:07.272Z,12.00
2019-05-03T13:43:36.959Z,12.10
2019-05-03T13:46:06.629Z,12.00
2019-05-03T13:48:45.288Z,12.30
2019-05-03T13:51:07.948Z,12.10
2019-05-03T13:53:37.736Z,12.10
2019-05-03T13:56:07.452Z,12.00
2019-05-03T13:58:37.185Z,12.00
2019-05-03T14:01:06.891Z,12.20
2019-05-03T14:03:36.886Z,12.60
2019-05-03T14:06:08.846Z,13.00
2019-05-03T14:08:38.412Z,12.80
2019-05-03T14:11:08.245Z,12.80
2019-05-03T14:13:37.811Z,12.40
2019-05-03T14:16:07.793Z,12.60
2019-05-03T14:18:37.474Z,12.60
2019-05-03T14:21:08.944Z,12.70
2019-05-03T14:23:56.116Z,12.60
2019-05-03T14:26:25.913Z,12.40
2019-05-03T14:28:55.564Z,12.10
2019-05-03T14:31:25.462Z,12.00
2019-05-03T14:33:55.900Z,12.00
2019-05-03T14:36:25.757Z,12.00
2019-05-03T14:38:55.386Z,12.10
2019-05-03T14:41:25.590Z,11.90
2019-05-03T14:43:55.819Z,11.60
2019-05-03T14:46:32.822Z,11.60
2019-05-03T14:48:57.205Z,11.70
2019-05-03T14:51:26.939Z,12.00
2019-05-03T14:53:57.445Z,12.00
2019-05-03T14:56:34.835Z,11.50
2019-05-03T14:59:23.836Z,11.70
2019-05-03T15:02:11.062Z,11.90
2019-05-03T15:04:40.801Z,11.90
2019-05-03T15:07:10.487Z,11.70
2019-05-03T15:09:40.228Z,12.00
2019-05-03T15:12:10.097Z,12.10
2019-05-03T15:14:39.950Z,12.00
2019-05-03T15:17:09.925Z,12.10
2019-05-03T15:19:39.582Z,11.90
2019-05-03T15:22:09.334Z,11.70
2019-05-03T15:24:38.896Z,11.60
2019-05-03T15:27:08.701Z,11.50
2019-05-03T15:29:38.592Z,11.70
2019-05-03T15:32:08.359Z,11.70
2019-05-03T15:34:38.042Z,11.80
2019-05-03T15:37:08.011Z,11.60
2019-05-03T15:39:37.761Z,11.40
2019-05-03T15:42:07.388Z,11.20
2019-05-03T15:44:38.773Z,11.30
2019-05-03T15:47:10.661Z,11.20
2019-05-03T15:49:40.476Z,11.00
2019-05-03T15:52:10.066Z,10.70
2019-05-03T15:54:39.894Z,10.70
2019-05-03T15:57:09.534Z,10.50
2019-05-03T15:59:39.292Z,10.60
2019-05-03T16:02:09.118Z,10.70
2019-05-03T16:04:38.716Z,10.80
2019-05-03T16:07:08.452Z,10.70
2019-05-03T16:09:38.580Z,10.80
2019-05-03T16:12:08.324Z,11.00
2019-05-03T16:14:38.077Z,11.30
2019-05-03T16:17:07.838Z,11.60
2019-05-03T16:19:37.530Z,11.50
2019-05-03T16:22:07.250Z,11.40
2019-05-03T16:24:36.906Z,11.30
2019-05-03T16:27:10.790Z,11.40
2019-05-03T16:29:40.371Z,11.40
2019-05-03T16:32:10.440Z,11.30
2019-05-03T16:34:40.175Z,11.40
2019-05-03T16:37:09.821Z,11.20
2019-05-03T16:39:39.537Z,11.10
2019-05-03T16:42:09.336Z,10.90
2019-05-03T16:44:39.054Z,10.70
2019-05-03T16:47:08.769Z,10.70
2019-05-03T16:49:38.499Z,10.70
2019-05-03T16:52:08.270Z,10.80
2019-05-03T16:54:38.150Z,10.90
2019-05-03T16:57:07.960Z,10.90
2019-05-03T16:59:37.599Z,11.00
2019-05-03T17:02:07.440Z,10.90
2019-05-03T17:04:47.470Z,10.90
2019-05-03T17:07:18.856Z,10.80
2019-05-03T17:09:50.281Z,10.60
2019-05-03T17:12:27.358Z,10.60
2019-05-03T17:14:57.378Z,10.50
2019-05-03T17:17:27.158Z,10.40
2019-05-03T17:19:57.515Z,10.30
2019-05-03T17:22:27.119Z,10.20
2019-05-03T17:24:56.728Z,10.10
2019-05-03T17:27:26.340Z,10.10
2019-05-03T17:29:56.199Z,10.20
2019-05-03T17:32:25.805Z,10.20
2019-05-03T17:34:55.440Z,10.10
2019-05-03T17:37:25.684Z,10.20
2019-05-03T17:39:57.060Z,10.20
2019-05-03T17:42:45.208Z,10.10
2019-05-03T17:45:16.808Z,10.00
2019-05-03T17:47:46.425Z,10.00
2019-05-03T17:50:16.239Z,10.00
2019-05-03T17:52:50.341Z,10.00
2019-05-03T17:55:21.630Z,9.90
2019-05-03T17:58:01.699Z,9.90
2019-05-03T18:00:31.045Z,9.80
2019-05-03T18:03:00.934Z,9.70
2019-05-03T18:05:34.929Z,9.80
2019-05-03T18:08:12.334Z,9.70
2019-05-03T18:10:43.560Z,9.70
2019-05-03T18:13:14.366Z,9.60
2019-05-03T18:15:44.928Z,9.70
2019-05-03T18:18:15.727Z,9.60
2019-05-03T18:20:45.559Z,9.60
2019-05-03T18:23:15.479Z,9.60
2019-05-03T18:25:45.323Z,9.60
2019-05-03T18:28:15.237Z,9.60
2019-05-03T18:30:45.513Z,9.40
2019-05-03T18:33:15.473Z,9.40
2019-05-03T18:35:45.273Z,9.40
2019-05-03T18:38:15.004Z,9.40
2019-05-03T18:40:45.018Z,9.40
2019-05-03T18:43:19.060Z,9.30
2019-05-03T18:45:56.324Z,9.30
2019-05-03T18:48:26.888Z,9.20
2019-05-03T18:50:56.615Z,9.20
2019-05-03T18:53:26.462Z,9.20
2019-05-03T18:55:56.042Z,9.10
2019-05-03T18:58:25.898Z,9.20
2019-05-03T19:00:55.682Z,9.10
2019-05-03T19:03:25.777Z,9.00
2019-05-03T19:05:57.270Z,8.90
2019-05-03T19:08:41.501Z,9.00
2019-05-03T19:11:18.625Z,9.00
2019-05-03T19:13:55.189Z,9.00
2019-05-03T19:16:35.051Z,8.90
2019-05-03T19:19:06.310Z,8.90
2019-05-03T19:21:36.061Z,8.80
2019-05-03T19:24:06.169Z,8.80
2019-05-03T19:26:35.998Z,8.80
2019-05-03T19:29:05.728Z,8.80
2019-05-03T19:31:35.946Z,8.70
2019-05-03T19:34:06.119Z,8.80
2019-05-03T19:36:37.317Z,8.70
2019-05-03T19:39:07.591Z,8.70
2019-05-03T19:41:37.802Z,8.60
2019-05-03T19:44:07.845Z,8.70
2019-05-03T19:46:37.776Z,8.60
2019-05-03T19:49:07.692Z,8.50
2019-05-03T19:51:37.588Z,8.60
2019-05-03T19:54:07.559Z,8.60
2019-05-03T19:56:37.277Z,8.40
2019-05-03T19:59:08.612Z,8.40
2019-05-03T20:01:43.002Z,8.50
2019-05-03T20:04:17.141Z,8.50
2019-05-03T20:06:52.597Z,8.40
2019-05-03T20:09:24.544Z,8.30
2019-05-03T20:11:55.221Z,8.40
2019-05-03T20:14:25.778Z,8.40
2019-05-03T20:16:55.536Z,8.30
2019-05-03T20:19:25.668Z,8.30
2019-05-03T20:21:56.635Z,8.30
2019-05-03T20:24:26.659Z,8.30
2019-05-03T20:26:56.665Z,8.30
2019-05-03T20:29:26.443Z,8.20
2019-05-03T20:31:56.087Z,8.20
2019-05-03T20:34:25.790Z,8.30
2019-05-03T20:36:55.468Z,8.20
2019-05-03T20:39:25.522Z,8.20
2019-05-03T20:41:56.616Z,8.20
2019-05-03T20:44:30.946Z,8.20
2019-05-03T20:47:04.889Z,8.10
2019-05-03T20:49:35.369Z,8.00
2019-05-03T20:52:05.014Z,8.00
2019-05-03T20:54:35.223Z,8.00
2019-05-03T20:57:05.390Z,7.90
2019-05-03T20:59:42.910Z,8.00
2019-05-03T21:02:07.024Z,7.90
2019-05-03T21:04:37.068Z,7.80
2019-05-03T21:07:06.882Z,7.70
2019-05-03T21:09:36.829Z,7.70
2019-05-03T21:12:06.576Z,7.70
2019-05-03T21:14:36.356Z,7.60
2019-05-03T21:17:14.958Z,7.60
2019-05-03T21:19:55.202Z,7.60
2019-05-03T21:22:26.247Z,7.60
2019-05-03T21:24:57.630Z,7.50
2019-05-03T21:27:27.357Z,7.50
2019-05-03T21:29:57.064Z,7.40
2019-05-03T21:32:26.780Z,7.30
2019-05-03T21:34:56.419Z,7.30
2019-05-03T21:37:26.082Z,7.30
2019-05-03T21:39:55.768Z,7.20
2019-05-03T21:42:25.477Z,7.10
2019-05-03T21:44:55.747Z,7.20
2019-05-03T21:47:42.072Z,7.20
2019-05-03T21:50:14.608Z,7.20
2019-05-03T21:52:45.770Z,7.20
2019-05-03T21:55:15.655Z,7.20
2019-05-03T21:57:45.551Z,7.10
2019-05-03T22:00:17.168Z,7.20
2019-05-03T22:02:46.955Z,7.00
2019-05-03T22:05:16.885Z,6.90
2019-05-03T22:07:46.456Z,7.00
2019-05-03T22:10:16.515Z,7.00
2019-05-03T22:12:46.102Z,6.90
2019-05-03T22:15:26.498Z,6.70
2019-05-03T22:18:00.754Z,6.70
2019-05-03T22:20:32.155Z,6.60
2019-05-03T22:23:04.547Z,6.60
2019-05-03T22:25:38.876Z,6.50
2019-05-03T22:28:08.402Z,6.50
2019-05-03T22:30:38.264Z,6.50
2019-05-03T22:33:07.812Z,6.40
2019-05-03T22:35:37.481Z,6.60
2019-05-03T22:38:07.292Z,6.40
2019-05-03T22:40:37.036Z,6.50
2019-05-03T22:43:06.754Z,6.50
2019-05-03T22:45:37.355Z,6.50
2019-05-03T22:48:07.183Z,6.50
2019-05-03T22:50:36.843Z,6.50
2019-05-03T22:53:06.650Z,6.40
2019-05-03T22:55:36.477Z,6.30
2019-05-03T22:58:06.528Z,6.20
2019-05-03T23:00:36.198Z,6.20
2019-05-03T23:03:05.968Z,6.10
2019-05-03T23:05:37.266Z,6.10
2019-05-03T23:08:07.247Z,6.00
2019-05-03T23:10:36.877Z,6.00
2019-05-03T23:13:06.723Z,6.00
2019-05-03T23:15:36.293Z,5.80
2019-05-03T23:18:06.186Z,5.80
2019-05-03T23:20:44.778Z,5.80
2019-05-03T23:23:32.336Z,5.70
2019-05-03T23:26:02.053Z,5.70
2019-05-03T23:28:31.721Z,5.70
2019-05-03T23:31:01.442Z,5.70
2019-05-03T23:33:31.221Z,5.60
2019-05-03T23:36:00.983Z,5.60
2019-05-03T23:38:30.795Z,5.70
2019-05-03T23:41:00.412Z,5.70
2019-05-03T23:43:30.160Z,5.70
2019-05-03T23:45:59.965Z,5.60
2019-05-03T23:48:29.567Z,5.70
2019-05-03T23:50:59.620Z,5.70
2019-05-03T23:53:29.409Z,5.70
2019-05-03T23:56:12.546Z,5.70
2019-05-03T23:58:44.550Z,5.70
